sensor_id;sensor_type;location;lat;lon;timestamp;P1;durP1;ratioP1;P2;durP2;ratioP2
28844;SDS011;15976;47.938;7.758;2023-02-15T00:00:34;74.93;;;17.73;;
28844;SDS011;15976;47.938;7.758;2023-02-15T00:03:01;83.97;;;17.00;;
28844;SDS011;15976;47.938;7.758;2023-02-15T00:05:29;112.85;;;19.02;;
28844;SDS011;15976;47.938;7.758;2023-02-15T00:07:57;41.85;;;15.35;;
28844;SDS011;15976;47.938;7.758;2023-02-15T00:10:24;72.97;;;17.92;;
28844;SDS011;15976;47.938;7.758;2023-02-15T00:12:51;46.03;;;15.85;;
28844;SDS011;15976;47.938;7.758;2023-02-15T00:15:18;54.28;;;15.43;;
28844;SDS011;15976;47.938;7.758;2023-02-15T00:17:45;69.90;;;16.45;;
28844;SDS011;15976;47.938;7.758;2023-02-15T00:24:24;51.65;;;15.88;;
28844;SDS011;15976;47.938;7.758;2023-02-15T00:35:17;51.80;;;15.63;;
28844;SDS011;15976;47.938;7.758;2023-02-15T00:37:44;60.10;;;16.05;;
28844;SDS011;15976;47.938;7.758;2023-02-15T00:40:11;98.82;;;18.00;;
28844;SDS011;15976;47.938;7.758;2023-02-15T00:42:38;68.45;;;16.52;;
28844;SDS011;15976;47.938;7.758;2023-02-15T00:45:07;50.38;;;15.40;;
28844;SDS011;15976;47.938;7.758;2023-02-15T00:47:34;58.55;;;14.73;;
28844;SDS011;15976;47.938;7.758;2023-02-15T00:50:01;57.67;;;15.80;;
28844;SDS011;15976;47.938;7.758;2023-02-15T00:52:29;65.63;;;16.67;;
28844;SDS011;15976;47.938;7.758;2023-02-15T00:54:57;73.80;;;16.60;;
28844;SDS011;15976;47.938;7.758;2023-02-15T00:57:24;53.00;;;15.13;;
28844;SDS011;15976;47.938;7.758;2023-02-15T00:59:51;32.67;;;15.70;;
28844;SDS011;15976;47.938;7.758;2023-02-15T01:02:18;32.10;;;14.70;;
28844;SDS011;15976;47.938;7.758;2023-02-15T01:04:45;40.50;;;14.73;;
28844;SDS011;15976;47.938;7.758;2023-02-15T01:07:12;40.88;;;14.77;;
28844;SDS011;15976;47.938;7.758;2023-02-15T01:09:39;56.90;;;14.32;;
28844;SDS011;15976;47.938;7.758;2023-02-15T01:12:06;73.25;;;15.43;;
28844;SDS011;15976;47.938;7.758;2023-02-15T01:14:35;39.13;;;13.93;;
28844;SDS011;15976;47.938;7.758;2023-02-15T01:17:03;67.35;;;14.63;;
28844;SDS011;15976;47.938;7.758;2023-02-15T01:19:34;63.13;;;15.25;;
28844;SDS011;15976;47.938;7.758;2023-02-15T01:22:01;48.25;;;15.05;;
28844;SDS011;15976;47.938;7.758;2023-02-15T01:24:28;33.60;;;13.70;;
28844;SDS011;15976;47.938;7.758;2023-02-15T01:26:54;29.13;;;14.35;;
28844;SDS011;15976;47.938;7.758;2023-02-15T01:29:21;39.65;;;15.65;;
28844;SDS011;15976;47.938;7.758;2023-02-15T01:31:48;47.75;;;14.70;;
28844;SDS011;15976;47.938;7.758;2023-02-15T01:34:15;49.33;;;14.35;;
28844;SDS011;15976;47.938;7.758;2023-02-15T01:36:42;29.60;;;13.93;;
28844;SDS011;15976;47.938;7.758;2023-02-15T01:39:10;52.88;;;14.88;;
28844;SDS011;15976;47.938;7.758;2023-02-15T01:41:37;33.25;;;14.98;;
28844;SDS011;15976;47.938;7.758;2023-02-15T01:44:40;62.50;;;14.07;;
28844;SDS011;15976;47.938;7.758;2023-02-15T01:47:10;47.92;;;15.13;;
28844;SDS011;15976;47.938;7.758;2023-02-15T01:49:39;37.30;;;15.27;;
28844;SDS011;15976;47.938;7.758;2023-02-15T01:52:08;40.58;;;15.80;;
28844;SDS011;15976;47.938;7.758;2023-02-15T01:54:38;45.13;;;15.10;;
28844;SDS011;15976;47.938;7.758;2023-02-15T01:57:10;54.70;;;14.88;;
28844;SDS011;15976;47.938;7.758;2023-02-15T01:59:40;23.90;;;14.30;;
28844;SDS011;15976;47.938;7.758;2023-02-15T02:02:11;39.90;;;14.60;;
28844;SDS011;15976;47.938;7.758;2023-02-15T02:04:43;31.50;;;13.63;;
28844;SDS011;15976;47.938;7.758;2023-02-15T02:07:14;39.75;;;13.63;;
28844;SDS011;15976;47.938;7.758;2023-02-15T02:09:44;36.15;;;14.20;;
28844;SDS011;15976;47.938;7.758;2023-02-15T02:12:12;43.65;;;14.75;;
28844;SDS011;15976;47.938;7.758;2023-02-15T02:14:40;32.20;;;13.68;;
28844;SDS011;15976;47.938;7.758;2023-02-15T02:34:32;43.15;;;13.02;;
28844;SDS011;15976;47.938;7.758;2023-02-15T02:37:23;41.58;;;13.63;;
28844;SDS011;15976;47.938;7.758;2023-02-15T02:40:10;33.15;;;13.23;;
28844;SDS011;15976;47.938;7.758;2023-02-15T02:42:55;36.33;;;12.10;;
28844;SDS011;15976;47.938;7.758;2023-02-15T02:45:32;32.63;;;12.63;;
28844;SDS011;15976;47.938;7.758;2023-02-15T02:48:13;35.97;;;12.27;;
28844;SDS011;15976;47.938;7.758;2023-02-15T02:50:43;44.08;;;13.70;;
28844;SDS011;15976;47.938;7.758;2023-02-15T02:53:10;25.92;;;12.45;;
28844;SDS011;15976;47.938;7.758;2023-02-15T02:55:45;41.55;;;12.93;;
28844;SDS011;15976;47.938;7.758;2023-02-15T03:01:00;26.05;;;12.70;;
28844;SDS011;15976;47.938;7.758;2023-02-15T03:03:38;19.80;;;11.98;;
28844;SDS011;15976;47.938;7.758;2023-02-15T03:06:11;22.42;;;12.40;;
28844;SDS011;15976;47.938;7.758;2023-02-15T03:08:49;29.55;;;12.63;;
28844;SDS011;15976;47.938;7.758;2023-02-15T03:11:21;28.95;;;12.35;;
28844;SDS011;15976;47.938;7.758;2023-02-15T03:13:49;35.08;;;13.00;;
28844;SDS011;15976;47.938;7.758;2023-02-15T03:16:18;28.45;;;11.60;;
28844;SDS011;15976;47.938;7.758;2023-02-15T03:24:24;44.17;;;13.05;;
28844;SDS011;15976;47.938;7.758;2023-02-15T03:27:04;35.30;;;11.95;;
28844;SDS011;15976;47.938;7.758;2023-02-15T03:29:37;32.35;;;12.65;;
28844;SDS011;15976;47.938;7.758;2023-02-15T03:32:05;25.40;;;11.50;;
28844;SDS011;15976;47.938;7.758;2023-02-15T03:34:35;32.47;;;11.70;;
28844;SDS011;15976;47.938;7.758;2023-02-15T03:37:04;38.30;;;11.80;;
28844;SDS011;15976;47.938;7.758;2023-02-15T03:39:54;41.15;;;11.40;;
28844;SDS011;15976;47.938;7.758;2023-02-15T03:42:48;28.20;;;12.00;;
28844;SDS011;15976;47.938;7.758;2023-02-15T03:45:19;79.00;;;13.35;;
28844;SDS011;15976;47.938;7.758;2023-02-15T03:48:00;38.30;;;11.90;;
28844;SDS011;15976;47.938;7.758;2023-02-15T03:50:30;79.07;;;13.10;;
28844;SDS011;15976;47.938;7.758;2023-02-15T03:53:18;60.42;;;12.70;;
28844;SDS011;15976;47.938;7.758;2023-02-15T03:55:49;23.63;;;10.80;;
28844;SDS011;15976;47.938;7.758;2023-02-15T03:58:20;51.55;;;11.90;;
28844;SDS011;15976;47.938;7.758;2023-02-15T04:01:11;74.68;;;13.82;;
28844;SDS011;15976;47.938;7.758;2023-02-15T04:04:10;47.08;;;11.23;;
28844;SDS011;15976;47.938;7.758;2023-02-15T04:06:43;51.28;;;11.82;;
28844;SDS011;15976;47.938;7.758;2023-02-15T04:09:11;35.00;;;11.68;;
28844;SDS011;15976;47.938;7.758;2023-02-15T04:11:57;20.48;;;11.25;;
28844;SDS011;15976;47.938;7.758;2023-02-15T04:14:24;36.60;;;12.45;;
28844;SDS011;15976;47.938;7.758;2023-02-15T04:17:10;123.88;;;15.32;;
28844;SDS011;15976;47.938;7.758;2023-02-15T04:19:37;56.95;;;12.68;;
28844;SDS011;15976;47.938;7.758;2023-02-15T04:22:23;36.05;;;11.75;;
28844;SDS011;15976;47.938;7.758;2023-02-15T04:25:08;42.00;;;12.10;;
28844;SDS011;15976;47.938;7.758;2023-02-15T04:27:35;47.53;;;13.35;;
28844;SDS011;15976;47.938;7.758;2023-02-15T04:30:03;53.30;;;13.27;;
28844;SDS011;15976;47.938;7.758;2023-02-15T04:32:32;60.92;;;12.18;;
28844;SDS011;15976;47.938;7.758;2023-02-15T04:35:00;59.45;;;12.93;;
28844;SDS011;15976;47.938;7.758;2023-02-15T04:37:27;30.88;;;11.18;;
28844;SDS011;15976;47.938;7.758;2023-02-15T04:39:55;46.00;;;12.45;;
28844;SDS011;15976;47.938;7.758;2023-02-15T04:42:22;29.52;;;11.13;;
28844;SDS011;15976;47.938;7.758;2023-02-15T04:44:49;56.55;;;12.40;;
28844;SDS011;15976;47.938;7.758;2023-02-15T04:47:16;39.50;;;12.13;;
28844;SDS011;15976;47.938;7.758;2023-02-15T04:49:43;37.38;;;12.27;;
28844;SDS011;15976;47.938;7.758;2023-02-15T04:52:10;24.55;;;11.45;;
28844;SDS011;15976;47.938;7.758;2023-02-15T04:54:37;24.55;;;11.55;;
28844;SDS011;15976;47.938;7.758;2023-02-15T04:57:08;79.72;;;12.52;;
28844;SDS011;15976;47.938;7.758;2023-02-15T04:59:36;41.22;;;12.27;;
28844;SDS011;15976;47.938;7.758;2023-02-15T05:02:03;31.65;;;12.85;;
28844;SDS011;15976;47.938;7.758;2023-02-15T05:04:30;37.83;;;12.32;;
28844;SDS011;15976;47.938;7.758;2023-02-15T05:06:57;36.20;;;11.27;;
28844;SDS011;15976;47.938;7.758;2023-02-15T05:09:24;33.08;;;11.77;;
28844;SDS011;15976;47.938;7.758;2023-02-15T05:11:51;38.78;;;11.77;;
28844;SDS011;15976;47.938;7.758;2023-02-15T05:14:18;29.67;;;11.77;;
28844;SDS011;15976;47.938;7.758;2023-02-15T05:16:47;33.97;;;12.80;;
28844;SDS011;15976;47.938;7.758;2023-02-15T05:19:15;73.85;;;14.90;;
28844;SDS011;15976;47.938;7.758;2023-02-15T05:21:45;33.38;;;11.20;;
28844;SDS011;15976;47.938;7.758;2023-02-15T05:24:16;35.88;;;12.95;;
28844;SDS011;15976;47.938;7.758;2023-02-15T05:27:07;26.63;;;11.75;;
28844;SDS011;15976;47.938;7.758;2023-02-15T05:29:56;35.45;;;12.43;;
28844;SDS011;15976;47.938;7.758;2023-02-15T05:32:30;35.90;;;13.00;;
28844;SDS011;15976;47.938;7.758;2023-02-15T05:35:01;22.67;;;11.55;;
28844;SDS011;15976;47.938;7.758;2023-02-15T05:37:40;30.27;;;12.00;;
28844;SDS011;15976;47.938;7.758;2023-02-15T05:40:14;31.75;;;11.65;;
28844;SDS011;15976;47.938;7.758;2023-02-15T05:42:48;38.65;;;12.05;;
28844;SDS011;15976;47.938;7.758;2023-02-15T05:45:17;19.52;;;11.63;;
28844;SDS011;15976;47.938;7.758;2023-02-15T05:47:48;22.50;;;12.30;;
28844;SDS011;15976;47.938;7.758;2023-02-15T05:50:22;23.10;;;12.10;;
28844;SDS011;15976;47.938;7.758;2023-02-15T05:52:52;22.80;;;12.25;;
28844;SDS011;15976;47.938;7.758;2023-02-15T05:55:19;33.40;;;11.18;;
28844;SDS011;15976;47.938;7.758;2023-02-15T05:57:46;58.35;;;12.57;;
28844;SDS011;15976;47.938;7.758;2023-02-15T06:00:15;45.60;;;12.70;;
28844;SDS011;15976;47.938;7.758;2023-02-15T06:02:42;26.85;;;12.70;;
28844;SDS011;15976;47.938;7.758;2023-02-15T06:05:09;34.85;;;12.25;;
28844;SDS011;15976;47.938;7.758;2023-02-15T06:07:36;25.95;;;12.40;;
28844;SDS011;15976;47.938;7.758;2023-02-15T06:10:04;34.33;;;12.40;;
28844;SDS011;15976;47.938;7.758;2023-02-15T06:12:31;34.08;;;11.82;;
28844;SDS011;15976;47.938;7.758;2023-02-15T06:14:59;35.55;;;12.95;;
28844;SDS011;15976;47.938;7.758;2023-02-15T06:17:26;36.92;;;12.48;;
28844;SDS011;15976;47.938;7.758;2023-02-15T06:19:53;30.38;;;13.32;;
28844;SDS011;15976;47.938;7.758;2023-02-15T06:22:20;25.25;;;12.25;;
28844;SDS011;15976;47.938;7.758;2023-02-15T06:24:47;27.60;;;12.45;;
28844;SDS011;15976;47.938;7.758;2023-02-15T06:27:14;29.92;;;13.85;;
28844;SDS011;15976;47.938;7.758;2023-02-15T06:29:42;45.15;;;17.77;;
28844;SDS011;15976;47.938;7.758;2023-02-15T06:32:09;31.63;;;12.30;;
28844;SDS011;15976;47.938;7.758;2023-02-15T06:34:36;41.50;;;13.63;;
28844;SDS011;15976;47.938;7.758;2023-02-15T06:37:03;35.42;;;13.52;;
28844;SDS011;15976;47.938;7.758;2023-02-15T06:39:31;27.63;;;14.80;;
28844;SDS011;15976;47.938;7.758;2023-02-15T06:41:59;30.05;;;14.32;;
28844;SDS011;15976;47.938;7.758;2023-02-15T06:44:26;30.85;;;13.65;;
28844;SDS011;15976;47.938;7.758;2023-02-15T06:46:53;22.52;;;12.88;;
28844;SDS011;15976;47.938;7.758;2023-02-15T06:49:20;31.15;;;13.45;;
28844;SDS011;15976;47.938;7.758;2023-02-15T06:51:47;26.77;;;13.00;;
28844;SDS011;15976;47.938;7.758;2023-02-15T06:54:14;37.70;;;14.45;;
28844;SDS011;15976;47.938;7.758;2023-02-15T06:56:41;37.42;;;13.95;;
28844;SDS011;15976;47.938;7.758;2023-02-15T06:59:09;24.48;;;12.18;;
28844;SDS011;15976;47.938;7.758;2023-02-15T07:01:37;32.13;;;12.05;;
28844;SDS011;15976;47.938;7.758;2023-02-15T07:04:04;60.80;;;13.60;;
28844;SDS011;15976;47.938;7.758;2023-02-15T07:06:32;34.38;;;11.85;;
28844;SDS011;15976;47.938;7.758;2023-02-15T07:09:09;25.65;;;11.90;;
28844;SDS011;15976;47.938;7.758;2023-02-15T07:11:46;34.10;;;12.30;;
28844;SDS011;15976;47.938;7.758;2023-02-15T07:14:53;27.67;;;11.82;;
28844;SDS011;15976;47.938;7.758;2023-02-15T07:17:28;31.13;;;12.57;;
28844;SDS011;15976;47.938;7.758;2023-02-15T07:20:21;20.58;;;11.60;;
28844;SDS011;15976;47.938;7.758;2023-02-15T07:23:00;22.08;;;12.27;;
28844;SDS011;15976;47.938;7.758;2023-02-15T07:25:56;21.65;;;12.90;;
28844;SDS011;15976;47.938;7.758;2023-02-15T07:28:28;63.35;;;13.80;;
28844;SDS011;15976;47.938;7.758;2023-02-15T07:31:28;33.50;;;12.77;;
28844;SDS011;15976;47.938;7.758;2023-02-15T07:34:34;34.83;;;12.85;;
28844;SDS011;15976;47.938;7.758;2023-02-15T07:37:22;23.23;;;12.15;;
28844;SDS011;15976;47.938;7.758;2023-02-15T07:39:55;31.90;;;12.45;;
28844;SDS011;15976;47.938;7.758;2023-02-15T07:42:32;22.88;;;12.57;;
28844;SDS011;15976;47.938;7.758;2023-02-15T07:45:24;24.40;;;11.00;;
28844;SDS011;15976;47.938;7.758;2023-02-15T07:48:27;21.52;;;11.27;;
28844;SDS011;15976;47.938;7.758;2023-02-15T07:51:25;26.35;;;11.90;;
28844;SDS011;15976;47.938;7.758;2023-02-15T07:57:31;46.35;;;14.38;;
28844;SDS011;15976;47.938;7.758;2023-02-15T07:59:58;36.58;;;13.75;;
28844;SDS011;15976;47.938;7.758;2023-02-15T08:02:25;27.13;;;13.45;;
28844;SDS011;15976;47.938;7.758;2023-02-15T08:04:52;37.83;;;14.73;;
28844;SDS011;15976;47.938;7.758;2023-02-15T08:07:19;27.42;;;14.52;;
28844;SDS011;15976;47.938;7.758;2023-02-15T08:09:46;36.53;;;12.95;;
28844;SDS011;15976;47.938;7.758;2023-02-15T08:12:13;35.60;;;12.80;;
28844;SDS011;15976;47.938;7.758;2023-02-15T08:14:40;46.65;;;18.13;;
28844;SDS011;15976;47.938;7.758;2023-02-15T08:17:07;36.55;;;15.57;;
28844;SDS011;15976;47.938;7.758;2023-02-15T08:19:34;29.55;;;14.90;;
28844;SDS011;15976;47.938;7.758;2023-02-15T08:22:02;34.13;;;13.52;;
28844;SDS011;15976;47.938;7.758;2023-02-15T08:24:34;45.85;;;14.65;;
28844;SDS011;15976;47.938;7.758;2023-02-15T08:27:05;28.77;;;15.40;;
28844;SDS011;15976;47.938;7.758;2023-02-15T08:29:34;35.22;;;12.52;;
28844;SDS011;15976;47.938;7.758;2023-02-15T08:32:06;26.13;;;11.45;;
28844;SDS011;15976;47.938;7.758;2023-02-15T08:34:36;24.48;;;14.15;;
28844;SDS011;15976;47.938;7.758;2023-02-15T08:37:05;27.15;;;13.45;;
28844;SDS011;15976;47.938;7.758;2023-02-15T08:39:32;23.00;;;12.70;;
28844;SDS011;15976;47.938;7.758;2023-02-15T08:42:00;28.77;;;14.70;;
28844;SDS011;15976;47.938;7.758;2023-02-15T08:44:27;34.53;;;14.18;;
28844;SDS011;15976;47.938;7.758;2023-02-15T08:46:54;53.50;;;14.38;;
28844;SDS011;15976;47.938;7.758;2023-02-15T08:49:23;35.38;;;13.50;;
28844;SDS011;15976;47.938;7.758;2023-02-15T08:51:50;35.00;;;13.05;;
28844;SDS011;15976;47.938;7.758;2023-02-15T08:54:19;25.55;;;13.30;;
28844;SDS011;15976;47.938;7.758;2023-02-15T08:56:48;26.25;;;13.57;;
28844;SDS011;15976;47.938;7.758;2023-02-15T08:59:19;31.83;;;13.55;;
28844;SDS011;15976;47.938;7.758;2023-02-15T09:01:48;27.15;;;12.60;;
28844;SDS011;15976;47.938;7.758;2023-02-15T09:04:16;21.58;;;12.73;;
28844;SDS011;15976;47.938;7.758;2023-02-15T09:06:44;30.13;;;14.32;;
28844;SDS011;15976;47.938;7.758;2023-02-15T09:09:14;31.17;;;14.88;;
28844;SDS011;15976;47.938;7.758;2023-02-15T09:11:43;45.08;;;17.90;;
28844;SDS011;15976;47.938;7.758;2023-02-15T09:14:11;40.80;;;20.42;;
28844;SDS011;15976;47.938;7.758;2023-02-15T09:16:44;49.13;;;19.88;;
28844;SDS011;15976;47.938;7.758;2023-02-15T09:19:12;40.67;;;17.05;;
28844;SDS011;15976;47.938;7.758;2023-02-15T09:21:40;41.42;;;18.48;;
28844;SDS011;15976;47.938;7.758;2023-02-15T09:24:08;37.28;;;16.15;;
28844;SDS011;15976;47.938;7.758;2023-02-15T09:26:37;35.55;;;16.77;;
28844;SDS011;15976;47.938;7.758;2023-02-15T09:29:07;46.50;;;18.55;;
28844;SDS011;15976;47.938;7.758;2023-02-15T09:31:39;36.03;;;19.17;;
28844;SDS011;15976;47.938;7.758;2023-02-15T09:34:11;47.35;;;18.33;;
28844;SDS011;15976;47.938;7.758;2023-02-15T09:36:39;39.20;;;17.67;;
28844;SDS011;15976;47.938;7.758;2023-02-15T09:39:08;39.00;;;17.98;;
28844;SDS011;15976;47.938;7.758;2023-02-15T09:44:39;40.22;;;17.08;;
28844;SDS011;15976;47.938;7.758;2023-02-15T09:47:53;28.45;;;15.38;;
28844;SDS011;15976;47.938;7.758;2023-02-15T09:50:37;32.67;;;16.53;;
28844;SDS011;15976;47.938;7.758;2023-02-15T09:58:59;44.38;;;19.02;;
28844;SDS011;15976;47.938;7.758;2023-02-15T10:02:17;41.67;;;16.42;;
28844;SDS011;15976;47.938;7.758;2023-02-15T10:10:36;34.00;;;15.38;;
28844;SDS011;15976;47.938;7.758;2023-02-15T10:13:53;29.55;;;15.52;;
28844;SDS011;15976;47.938;7.758;2023-02-15T10:19:33;28.33;;;15.98;;
28844;SDS011;15976;47.938;7.758;2023-02-15T10:25:46;29.73;;;15.27;;
28844;SDS011;15976;47.938;7.758;2023-02-15T10:31:37;29.95;;;16.52;;
28844;SDS011;15976;47.938;7.758;2023-02-15T10:47:55;37.50;;;19.58;;
28844;SDS011;15976;47.938;7.758;2023-02-15T10:50:50;34.05;;;18.05;;
28844;SDS011;15976;47.938;7.758;2023-02-15T10:56:12;32.60;;;17.05;;
28844;SDS011;15976;47.938;7.758;2023-02-15T10:59:01;38.00;;;20.83;;
28844;SDS011;15976;47.938;7.758;2023-02-15T11:01:59;43.75;;;21.45;;
28844;SDS011;15976;47.938;7.758;2023-02-15T11:04:50;36.60;;;18.73;;
28844;SDS011;15976;47.938;7.758;2023-02-15T11:07:41;38.47;;;20.05;;
28844;SDS011;15976;47.938;7.758;2023-02-15T11:10:21;30.88;;;18.15;;
28844;SDS011;15976;47.938;7.758;2023-02-15T11:13:02;38.15;;;19.95;;
28844;SDS011;15976;47.938;7.758;2023-02-15T11:19:17;31.00;;;16.27;;
28844;SDS011;15976;47.938;7.758;2023-02-15T11:21:31;33.63;;;18.55;;
28844;SDS011;15976;47.938;7.758;2023-02-15T11:24:13;30.08;;;17.02;;
28844;SDS011;15976;47.938;7.758;2023-02-15T11:26:54;31.27;;;17.67;;
28844;SDS011;15976;47.938;7.758;2023-02-15T11:29:40;35.00;;;18.65;;
28844;SDS011;15976;47.938;7.758;2023-02-15T11:37:41;28.45;;;17.27;;
28844;SDS011;15976;47.938;7.758;2023-02-15T11:40:20;33.92;;;17.67;;
28844;SDS011;15976;47.938;7.758;2023-02-15T11:42:53;31.08;;;17.80;;
28844;SDS011;15976;47.938;7.758;2023-02-15T11:45:26;31.33;;;17.40;;
28844;SDS011;15976;47.938;7.758;2023-02-15T11:47:57;36.92;;;19.17;;
28844;SDS011;15976;47.938;7.758;2023-02-15T11:50:27;32.20;;;19.05;;
28844;SDS011;15976;47.938;7.758;2023-02-15T11:53:01;37.33;;;19.08;;
28844;SDS011;15976;47.938;7.758;2023-02-15T11:55:30;42.20;;;24.27;;
28844;SDS011;15976;47.938;7.758;2023-02-15T12:00:39;32.58;;;19.70;;
28844;SDS011;15976;47.938;7.758;2023-02-15T12:03:28;44.42;;;22.10;;
28844;SDS011;15976;47.938;7.758;2023-02-15T12:06:26;38.33;;;21.20;;
28844;SDS011;15976;47.938;7.758;2023-02-15T12:11:36;46.35;;;21.52;;
28844;SDS011;15976;47.938;7.758;2023-02-15T12:14:05;29.38;;;17.55;;
28844;SDS011;15976;47.938;7.758;2023-02-15T12:19:19;32.83;;;18.35;;
28844;SDS011;15976;47.938;7.758;2023-02-15T12:22:06;34.70;;;18.55;;
28844;SDS011;15976;47.938;7.758;2023-02-15T12:24:47;34.17;;;18.45;;
28844;SDS011;15976;47.938;7.758;2023-02-15T12:27:19;34.67;;;20.10;;
28844;SDS011;15976;47.938;7.758;2023-02-15T12:29:49;31.60;;;18.15;;
28844;SDS011;15976;47.938;7.758;2023-02-15T12:32:26;38.25;;;22.90;;
28844;SDS011;15976;47.938;7.758;2023-02-15T12:35:00;35.20;;;19.85;;
28844;SDS011;15976;47.938;7.758;2023-02-15T12:37:55;41.22;;;21.10;;
28844;SDS011;15976;47.938;7.758;2023-02-15T12:40:29;34.67;;;20.10;;
28844;SDS011;15976;47.938;7.758;2023-02-15T12:42:58;37.55;;;21.17;;
28844;SDS011;15976;47.938;7.758;2023-02-15T12:45:30;37.53;;;20.00;;
28844;SDS011;15976;47.938;7.758;2023-02-15T12:50:43;38.22;;;20.65;;
28844;SDS011;15976;47.938;7.758;2023-02-15T12:56:00;37.55;;;20.52;;
28844;SDS011;15976;47.938;7.758;2023-02-15T12:58:36;39.92;;;21.75;;
28844;SDS011;15976;47.938;7.758;2023-02-15T13:01:17;40.30;;;22.20;;
28844;SDS011;15976;47.938;7.758;2023-02-15T13:04:08;38.35;;;21.80;;
28844;SDS011;15976;47.938;7.758;2023-02-15T13:06:52;35.33;;;20.92;;
28844;SDS011;15976;47.938;7.758;2023-02-15T13:09:26;39.53;;;22.05;;
28844;SDS011;15976;47.938;7.758;2023-02-15T13:14:46;40.63;;;22.23;;
28844;SDS011;15976;47.938;7.758;2023-02-15T13:17:18;42.17;;;21.90;;
28844;SDS011;15976;47.938;7.758;2023-02-15T13:20:09;40.42;;;20.77;;
28844;SDS011;15976;47.938;7.758;2023-02-15T13:22:44;50.80;;;21.92;;
28844;SDS011;15976;47.938;7.758;2023-02-15T13:25:22;40.70;;;22.48;;
28844;SDS011;15976;47.938;7.758;2023-02-15T13:27:56;37.97;;;20.43;;
28844;SDS011;15976;47.938;7.758;2023-02-15T13:39:05;39.72;;;22.50;;
28844;SDS011;15976;47.938;7.758;2023-02-15T13:41:48;46.92;;;21.38;;
28844;SDS011;15976;47.938;7.758;2023-02-15T13:44:29;40.47;;;21.65;;
28844;SDS011;15976;47.938;7.758;2023-02-15T13:47:27;41.65;;;21.83;;
28844;SDS011;15976;47.938;7.758;2023-02-15T13:52:47;38.30;;;21.60;;
28844;SDS011;15976;47.938;7.758;2023-02-15T13:58:39;48.15;;;21.70;;
28844;SDS011;15976;47.938;7.758;2023-02-15T14:01:49;34.90;;;19.77;;
28844;SDS011;15976;47.938;7.758;2023-02-15T14:06:43;33.50;;;19.48;;
28844;SDS011;15976;47.938;7.758;2023-02-15T14:09:24;32.45;;;19.30;;
28844;SDS011;15976;47.938;7.758;2023-02-15T14:12:30;34.53;;;19.63;;
28844;SDS011;15976;47.938;7.758;2023-02-15T14:17:43;35.42;;;19.73;;
28844;SDS011;15976;47.938;7.758;2023-02-15T14:31:28;35.20;;;19.40;;
28844;SDS011;15976;47.938;7.758;2023-02-15T14:33:59;33.55;;;18.65;;
28844;SDS011;15976;47.938;7.758;2023-02-15T14:36:27;36.53;;;19.60;;
28844;SDS011;15976;47.938;7.758;2023-02-15T14:39:15;37.63;;;19.92;;
28844;SDS011;15976;47.938;7.758;2023-02-15T14:42:25;35.55;;;19.98;;
28844;SDS011;15976;47.938;7.758;2023-02-15T14:48:09;34.25;;;17.42;;
28844;SDS011;15976;47.938;7.758;2023-02-15T14:50:57;31.70;;;17.90;;
28844;SDS011;15976;47.938;7.758;2023-02-15T14:53:34;31.45;;;17.88;;
28844;SDS011;15976;47.938;7.758;2023-02-15T15:01:15;30.75;;;16.80;;
28844;SDS011;15976;47.938;7.758;2023-02-15T15:04:00;31.92;;;16.67;;
28844;SDS011;15976;47.938;7.758;2023-02-15T15:06:56;30.38;;;16.13;;
28844;SDS011;15976;47.938;7.758;2023-02-15T15:09:44;32.55;;;17.58;;
28844;SDS011;15976;47.938;7.758;2023-02-15T15:14:51;33.83;;;17.73;;
28844;SDS011;15976;47.938;7.758;2023-02-15T15:20:01;33.63;;;19.88;;
28844;SDS011;15976;47.938;7.758;2023-02-15T15:31:39;36.72;;;21.45;;
28844;SDS011;15976;47.938;7.758;2023-02-15T15:43:19;27.10;;;16.67;;
28844;SDS011;15976;47.938;7.758;2023-02-15T15:48:50;32.33;;;18.08;;
28844;SDS011;15976;47.938;7.758;2023-02-15T15:51:20;27.95;;;16.83;;
28844;SDS011;15976;47.938;7.758;2023-02-15T15:53:53;27.30;;;17.35;;
28844;SDS011;15976;47.938;7.758;2023-02-15T15:56:24;27.15;;;17.48;;
28844;SDS011;15976;47.938;7.758;2023-02-15T15:58:57;30.73;;;18.02;;
28844;SDS011;15976;47.938;7.758;2023-02-15T16:01:28;31.55;;;17.20;;
28844;SDS011;15976;47.938;7.758;2023-02-15T16:03:57;26.45;;;16.05;;
28844;SDS011;15976;47.938;7.758;2023-02-15T16:06:29;27.77;;;16.77;;
28844;SDS011;15976;47.938;7.758;2023-02-15T16:09:12;29.52;;;16.42;;
28844;SDS011;15976;47.938;7.758;2023-02-15T16:11:39;26.95;;;16.52;;
28844;SDS011;15976;47.938;7.758;2023-02-15T16:14:11;25.63;;;17.17;;
28844;SDS011;15976;47.938;7.758;2023-02-15T16:16:41;26.65;;;16.25;;
28844;SDS011;15976;47.938;7.758;2023-02-15T16:19:18;30.60;;;18.90;;
28844;SDS011;15976;47.938;7.758;2023-02-15T16:21:50;31.25;;;17.10;;
28844;SDS011;15976;47.938;7.758;2023-02-15T16:29:39;35.05;;;19.85;;
28844;SDS011;15976;47.938;7.758;2023-02-15T16:32:15;35.85;;;21.33;;
28844;SDS011;15976;47.938;7.758;2023-02-15T16:34:51;34.28;;;20.92;;
28844;SDS011;15976;47.938;7.758;2023-02-15T16:37:24;35.42;;;19.75;;
28844;SDS011;15976;47.938;7.758;2023-02-15T16:39:58;33.00;;;18.98;;
28844;SDS011;15976;47.938;7.758;2023-02-15T16:42:25;36.80;;;20.02;;
28844;SDS011;15976;47.938;7.758;2023-02-15T16:47:39;32.40;;;19.00;;
28844;SDS011;15976;47.938;7.758;2023-02-15T16:50:24;35.22;;;20.13;;
28844;SDS011;15976;47.938;7.758;2023-02-15T16:53:20;39.22;;;20.80;;
28844;SDS011;15976;47.938;7.758;2023-02-15T16:55:51;35.13;;;19.50;;
28844;SDS011;15976;47.938;7.758;2023-02-15T16:58:37;35.42;;;19.17;;
28844;SDS011;15976;47.938;7.758;2023-02-15T17:01:09;31.73;;;18.90;;
28844;SDS011;15976;47.938;7.758;2023-02-15T17:03:39;33.78;;;19.20;;
28844;SDS011;15976;47.938;7.758;2023-02-15T17:06:28;32.17;;;19.45;;
28844;SDS011;15976;47.938;7.758;2023-02-15T17:09:05;37.75;;;20.13;;
28844;SDS011;15976;47.938;7.758;2023-02-15T17:11:41;41.03;;;22.38;;
28844;SDS011;15976;47.938;7.758;2023-02-15T17:14:11;35.58;;;20.80;;
28844;SDS011;15976;47.938;7.758;2023-02-15T17:19:17;31.88;;;18.77;;
28844;SDS011;15976;47.938;7.758;2023-02-15T17:21:51;40.72;;;22.70;;
28844;SDS011;15976;47.938;7.758;2023-02-15T17:24:41;44.00;;;23.40;;
28844;SDS011;15976;47.938;7.758;2023-02-15T17:29:45;33.20;;;19.95;;
28844;SDS011;15976;47.938;7.758;2023-02-15T17:32:19;30.40;;;18.42;;
28844;SDS011;15976;47.938;7.758;2023-02-15T17:37:30;35.00;;;20.15;;
28844;SDS011;15976;47.938;7.758;2023-02-15T17:40:14;41.55;;;22.95;;
28844;SDS011;15976;47.938;7.758;2023-02-15T17:42:48;40.88;;;22.85;;
28844;SDS011;15976;47.938;7.758;2023-02-15T17:45:15;38.78;;;20.88;;
28844;SDS011;15976;47.938;7.758;2023-02-15T17:47:43;43.88;;;22.55;;
28844;SDS011;15976;47.938;7.758;2023-02-15T17:50:18;46.80;;;24.85;;
28844;SDS011;15976;47.938;7.758;2023-02-15T17:52:50;44.38;;;24.05;;
28844;SDS011;15976;47.938;7.758;2023-02-15T17:55:20;49.55;;;25.45;;
28844;SDS011;15976;47.938;7.758;2023-02-15T17:58:02;56.60;;;30.42;;
28844;SDS011;15976;47.938;7.758;2023-02-15T18:00:30;55.33;;;30.88;;
28844;SDS011;15976;47.938;7.758;2023-02-15T18:03:23;55.33;;;31.17;;
28844;SDS011;15976;47.938;7.758;2023-02-15T18:06:23;52.83;;;28.70;;
28844;SDS011;15976;47.938;7.758;2023-02-15T18:09:10;57.72;;;29.48;;
28844;SDS011;15976;47.938;7.758;2023-02-15T18:11:57;59.83;;;31.60;;